Canoe Narrows, Canada
Current Conditions -  °F | °C
As of 3:00 PM on Wednesday 17 Dec 2014 (Local Time) from CYVT Reporting Station
Light Snow Light Snow  
Wind Chill:   Ceiling: 800
Heat Index: 16°   Visibility: 12mi
Dew Point: 12°   Wind: 10mph
Humidity: 86%   Direction: 180°S
Pressure: 29.96"   Gusts: NA
Location:  55.17°N, 108.15°W
Report Text: CYVT 172100Z 18009KT 12SM -SN OVC008 M09/M11 A2996 RMK ST8 SLP179
Loading
Personal Weather Stations






























Interactive Weather Map New forecast layout! Learn more

10-Day Weather Forecast

Advertisements
Track Severe Weather on mobile